createdAt,value
2023-01-13T00:13:53.989Z,1010.16
2023-01-13T00:43:54.003Z,1010.01
2023-01-13T01:13:54.093Z,1009.68
2023-01-13T01:43:54.004Z,1009.6
2023-01-13T02:13:54.026Z,1009.21
2023-01-13T02:43:54.033Z,1008.9
2023-01-13T03:13:54.026Z,1008.64
2023-01-13T03:43:54.025Z,1008.51
2023-01-13T04:13:54.029Z,1008.51
2023-01-13T04:43:54.035Z,1008.56
2023-01-13T05:13:54.041Z,1008.41
2023-01-13T05:43:54.050Z,1008.42
2023-01-13T06:13:54.077Z,1008.38
2023-01-13T06:43:54.091Z,1008.34
2023-01-13T07:13:54.101Z,1008.31
2023-01-13T07:43:54.069Z,1008.25
2023-01-13T08:13:54.097Z,1008.14
2023-01-13T08:43:54.092Z,1008.3
2023-01-13T09:13:54.085Z,1008.72
2023-01-13T09:43:54.110Z,1009.43
2023-01-13T10:13:54.101Z,1009.76
2023-01-13T10:43:54.116Z,1009.92
2023-01-13T11:13:54.147Z,1009.69
2023-01-13T11:43:54.119Z,1009.55
2023-01-13T12:13:54.120Z,1009.88
2023-01-13T12:43:54.109Z,1009.94
2023-01-13T13:13:54.128Z,1009.88
2023-01-13T13:43:54.141Z,1009.68
2023-01-13T14:13:54.110Z,1010.37
2023-01-13T14:43:54.128Z,1010.32
2023-01-13T15:13:54.085Z,1010.75
2023-01-13T15:43:54.084Z,1011.31
2023-01-13T16:13:54.124Z,1012.28
2023-01-13T16:43:54.184Z,1012.71
2023-01-13T17:13:54.196Z,1012.93
2023-01-13T17:43:54.225Z,1013.4
2023-01-13T18:13:54.203Z,1013.62
2023-01-13T18:43:54.189Z,1013.99
2023-01-13T19:13:54.207Z,1014.27
2023-01-13T19:43:54.217Z,1014.47
2023-01-13T20:13:54.212Z,1014.71
2023-01-13T20:43:54.204Z,1015.08
2023-01-13T21:13:54.250Z,1015.44
2023-01-13T21:43:54.220Z,1015.46
2023-01-13T22:13:54.222Z,1015.76
2023-01-13T22:43:54.224Z,1015.95
2023-01-13T23:13:54.243Z,1016.43
2023-01-13T23:43:54.240Z,1016.75
